createdAt,value
2018-08-21T00:01:04.000Z,31.5
2018-08-21T00:02:04.000Z,31.5
2018-08-21T00:04:04.000Z,31.4
2018-08-21T00:06:04.000Z,31.4
2018-08-21T00:07:04.000Z,31.4
2018-08-21T00:08:04.000Z,31.4
2018-08-21T00:09:04.000Z,31.5
2018-08-21T00:11:04.000Z,31.5
2018-08-21T00:12:04.000Z,31.5
2018-08-21T00:14:04.000Z,31.5
2018-08-21T00:16:04.000Z,31.5
2018-08-21T00:17:04.000Z,31.5
2018-08-21T00:19:04.000Z,31.5
2018-08-21T00:21:04.000Z,31.4
2018-08-21T00:22:04.000Z,31.4
2018-08-21T00:24:04.000Z,31.3
2018-08-21T00:25:04.000Z,31.3
2018-08-21T00:26:49.000Z,31.4
2018-08-21T00:28:04.000Z,31.3
2018-08-21T00:30:04.000Z,31.3
2018-08-21T00:31:04.000Z,31.3
2018-08-21T00:32:49.000Z,31.3
2018-08-21T00:34:04.000Z,31.2
2018-08-21T00:36:04.000Z,31.2
2018-08-21T00:38:04.000Z,31.1
2018-08-21T00:40:04.000Z,31.1
2018-08-21T00:41:04.000Z,31.1
2018-08-21T00:43:04.000Z,31.2
2018-08-21T00:45:04.000Z,31.1
2018-08-21T00:47:04.000Z,31.1
2018-08-21T00:49:04.000Z,31
2018-08-21T00:51:04.000Z,31
2018-08-21T00:52:04.000Z,31.1
2018-08-21T00:53:04.000Z,31.1
2018-08-21T00:55:04.000Z,31.2
2018-08-21T00:56:04.000Z,31.2
2018-08-21T00:57:49.000Z,31.3
2018-08-21T00:59:04.000Z,31.3
2018-08-21T01:00:49.000Z,31.3
2018-08-21T01:02:04.000Z,31.2
2018-08-21T01:04:04.000Z,31.2
2018-08-21T01:05:04.000Z,31.2
2018-08-21T01:07:04.000Z,31.3
2018-08-21T01:09:04.000Z,31.3
2018-08-21T01:11:04.000Z,31.3
2018-08-21T01:12:04.000Z,31.3
2018-08-21T01:13:04.000Z,31.3
2018-08-21T01:14:04.000Z,31.4
2018-08-21T01:16:04.000Z,31.4
2018-08-21T01:18:04.000Z,31.3
2018-08-21T01:19:04.000Z,31.3
2018-08-21T01:20:04.000Z,31.3
2018-08-21T01:21:04.000Z,31.4
2018-08-21T01:23:04.000Z,31.5
2018-08-21T01:24:04.000Z,31.5
2018-08-21T01:26:04.000Z,31.4
2018-08-21T01:28:04.000Z,31.3
2018-08-21T01:29:04.000Z,31.3
2018-08-21T01:31:04.000Z,31.4
2018-08-21T01:33:04.000Z,31.3
2018-08-21T01:34:04.000Z,31.2
2018-08-21T01:35:49.000Z,31.3
2018-08-21T01:37:04.000Z,31.2
2018-08-21T01:38:04.000Z,31.3
2018-08-21T01:39:04.000Z,31.3
2018-08-21T01:41:04.000Z,31.4
2018-08-21T01:42:04.000Z,31.4
2018-08-21T01:44:04.000Z,31.4
2018-08-21T01:45:04.000Z,31.4
2018-08-21T01:46:04.000Z,31.5
2018-08-21T01:48:04.000Z,31.5
2018-08-21T01:50:04.000Z,31.4
2018-08-21T01:51:49.000Z,31.4
2018-08-21T01:53:04.000Z,31.3
2018-08-21T01:55:04.000Z,31.3
2018-08-21T01:57:04.000Z,31.2
2018-08-21T01:59:04.000Z,31.2
2018-08-21T02:01:04.000Z,31.2
2018-08-21T02:03:04.000Z,31.1
2018-08-21T02:04:04.000Z,31.1
2018-08-21T02:06:04.000Z,31.1
2018-08-21T02:08:04.000Z,31.1
2018-08-21T02:09:04.000Z,31.1
2018-08-21T02:11:04.000Z,31.2
2018-08-21T02:13:04.000Z,31.1
2018-08-21T02:15:04.000Z,31.1
2018-08-21T02:17:04.000Z,31.1
2018-08-21T02:18:04.000Z,31.1
2018-08-21T02:20:04.000Z,31.2
2018-08-21T02:22:04.000Z,31.2
2018-08-21T02:23:04.000Z,31.2
2018-08-21T02:25:04.000Z,31.2
2018-08-21T02:26:04.000Z,31.2
2018-08-21T02:28:04.000Z,31.2
2018-08-21T02:30:04.000Z,31.2
2018-08-21T02:32:04.000Z,31.1
2018-08-21T02:34:04.000Z,31
2018-08-21T02:35:04.000Z,31.1
2018-08-21T02:37:04.000Z,31.1
2018-08-21T02:38:04.000Z,31.1
2018-08-21T02:40:04.000Z,31.2
2018-08-21T02:41:04.000Z,31.2
2018-08-21T02:42:04.000Z,31.3
2018-08-21T02:44:04.000Z,31.3
2018-08-21T02:46:04.000Z,31.3
2018-08-21T02:48:04.000Z,31.2
2018-08-21T02:50:04.000Z,31.2
2018-08-21T02:51:04.000Z,31.2
2018-08-21T02:52:04.000Z,31.2
2018-08-21T02:54:04.000Z,31.2
2018-08-21T02:55:04.000Z,31.2
2018-08-21T02:56:04.000Z,31.3
2018-08-21T02:58:04.000Z,31.3
2018-08-21T02:59:04.000Z,31.2
2018-08-21T03:00:04.000Z,31.3
2018-08-21T03:02:04.000Z,31.3
2018-08-21T03:03:04.000Z,31.3
2018-08-21T03:04:04.000Z,31.3
2018-08-21T03:05:04.000Z,31.4
2018-08-21T03:07:04.000Z,31.3
2018-08-21T03:08:04.000Z,31.3
2018-08-21T03:10:04.000Z,31.3
2018-08-21T03:11:04.000Z,31.3
2018-08-21T03:13:04.000Z,31.3
2018-08-21T03:14:04.000Z,31.2
2018-08-21T03:16:04.000Z,31.2
2018-08-21T03:17:49.000Z,31.2
2018-08-21T03:19:04.000Z,31.2
2018-08-21T03:20:04.000Z,31.2
2018-08-21T03:21:04.000Z,31.2
2018-08-21T03:23:04.000Z,31.2
2018-08-21T03:25:04.000Z,31.2
2018-08-21T03:26:04.000Z,31.2
2018-08-21T03:28:04.000Z,31.2
2018-08-21T03:29:49.000Z,31.2
2018-08-21T03:31:04.000Z,31.1
2018-08-21T03:32:04.000Z,31.2
2018-08-21T03:33:04.000Z,31.2
2018-08-21T03:34:04.000Z,31.3
2018-08-21T03:36:04.000Z,31.3
2018-08-21T03:38:04.000Z,31.2
2018-08-21T03:40:04.000Z,31.2
2018-08-21T03:41:04.000Z,31.2
2018-08-21T03:43:04.000Z,31.2
2018-08-21T03:45:04.000Z,31.2
2018-08-21T03:47:04.000Z,31.2
2018-08-21T03:49:04.000Z,31.1
2018-08-21T03:50:04.000Z,31.1
2018-08-21T03:52:04.000Z,31.1
2018-08-21T03:54:04.000Z,31.1
2018-08-21T03:55:04.000Z,31.1
2018-08-21T03:56:49.000Z,31.1
2018-08-21T03:58:04.000Z,31.1
2018-08-21T03:59:04.000Z,31.1
2018-08-21T04:00:04.000Z,31.2
2018-08-21T04:02:04.000Z,31.2
2018-08-21T04:03:04.000Z,31.3
2018-08-21T04:05:04.000Z,31.2
2018-08-21T04:07:04.000Z,31.1
2018-08-21T04:09:04.000Z,31.1
2018-08-21T04:10:04.000Z,31.1
2018-08-21T04:12:04.000Z,31.1
2018-08-21T04:14:04.000Z,31.1
2018-08-21T04:15:04.000Z,31.1
2018-08-21T04:17:04.000Z,31.1
2018-08-21T04:19:04.000Z,31.1
2018-08-21T04:21:04.000Z,31
2018-08-21T04:23:04.000Z,30.8
2018-08-21T04:25:04.000Z,30.4
2018-08-21T04:26:04.000Z,30.2
2018-08-21T04:27:04.000Z,30.1
2018-08-21T04:29:04.000Z,29.9
2018-08-21T04:31:04.000Z,29.7
2018-08-21T04:33:04.000Z,29.5
2018-08-21T04:34:04.000Z,29.5
2018-08-21T04:36:04.000Z,29.4
2018-08-21T04:38:04.000Z,29.2
2018-08-21T04:40:04.000Z,29
2018-08-21T04:42:04.000Z,28.9
2018-08-21T04:44:04.000Z,28.8
2018-08-21T04:46:04.000Z,28.7
2018-08-21T04:47:04.000Z,28.7
2018-08-21T04:48:04.000Z,28.7
2018-08-21T04:50:04.000Z,28.7
2018-08-21T04:52:04.000Z,28.7
2018-08-21T04:53:04.000Z,28.7
2018-08-21T04:54:04.000Z,28.6
2018-08-21T04:56:04.000Z,28.6
2018-08-21T04:57:04.000Z,28.5
2018-08-21T04:58:04.000Z,28.5
2018-08-21T04:59:04.000Z,28.5
2018-08-21T05:01:04.000Z,28.4
2018-08-21T05:03:04.000Z,28.3
2018-08-21T05:04:04.000Z,28.3
2018-08-21T05:06:04.000Z,28.2
2018-08-21T05:08:04.000Z,28.2
2018-08-21T05:10:04.000Z,28.1
2018-08-21T05:12:04.000Z,28.1
2018-08-21T05:14:04.000Z,28.1
2018-08-21T05:15:49.000Z,28.1
2018-08-21T05:17:04.000Z,28
2018-08-21T05:18:04.000Z,28.1
2018-08-21T05:19:04.000Z,28.1
2018-08-21T05:21:04.000Z,28.1
2018-08-21T05:22:49.000Z,28.2
2018-08-21T05:24:04.000Z,28.1
2018-08-21T05:25:04.000Z,28.1
2018-08-21T05:27:04.000Z,28.1
2018-08-21T05:28:04.000Z,28.1
2018-08-21T05:29:49.000Z,28.2
2018-08-21T05:31:04.000Z,28.1
2018-08-21T05:32:04.000Z,28.1
2018-08-21T05:33:04.000Z,28.2
2018-08-21T05:34:04.000Z,28.2
2018-08-21T05:35:49.000Z,28.2
2018-08-21T05:37:04.000Z,28.2
2018-08-21T05:39:04.000Z,28.1
2018-08-21T05:41:04.000Z,28.1
2018-08-21T05:43:04.000Z,28.1
2018-08-21T05:44:04.000Z,28.1
2018-08-21T05:46:04.000Z,28.2
2018-08-21T05:48:04.000Z,28.2
2018-08-21T05:50:04.000Z,28.3
2018-08-21T05:52:04.000Z,28.3
2018-08-21T05:54:04.000Z,28.3
2018-08-21T05:56:04.000Z,28.4
2018-08-21T05:57:04.000Z,28.4
2018-08-21T05:59:04.000Z,28.5
2018-08-21T06:00:04.000Z,28.6
2018-08-21T06:02:04.000Z,28.7
2018-08-21T06:03:04.000Z,28.7
2018-08-21T06:05:04.000Z,28.8
2018-08-21T06:07:04.000Z,28.8
2018-08-21T06:09:04.000Z,28.8
2018-08-21T06:10:04.000Z,28.8
2018-08-21T06:12:04.000Z,28.9
2018-08-21T06:14:04.000Z,28.9
2018-08-21T06:15:04.000Z,28.9
2018-08-21T06:16:04.000Z,28.9
2018-08-21T06:18:04.000Z,28.9
2018-08-21T06:19:04.000Z,28.9
2018-08-21T06:21:04.000Z,29
2018-08-21T06:22:49.000Z,29
2018-08-21T06:24:04.000Z,29
2018-08-21T06:25:04.000Z,29
2018-08-21T06:26:04.000Z,29
2018-08-21T06:28:04.000Z,29.1
2018-08-21T06:29:04.000Z,29.1
2018-08-21T06:31:04.000Z,29.1
2018-08-21T06:33:04.000Z,29
2018-08-21T06:34:04.000Z,29
2018-08-21T06:36:04.000Z,29.1
2018-08-21T06:37:04.000Z,29.2
2018-08-21T06:38:49.000Z,29.2
2018-08-21T06:40:04.000Z,29.2
2018-08-21T06:42:04.000Z,29.2
2018-08-21T06:44:04.000Z,29.1
2018-08-21T06:46:05.000Z,29.1
2018-08-21T06:47:05.000Z,29.1
2018-08-21T06:48:05.000Z,29.1
2018-08-21T06:49:50.000Z,29.2
2018-08-21T06:51:05.000Z,29.2
2018-08-21T06:52:05.000Z,29.2
2018-08-21T06:54:05.000Z,29.3
2018-08-21T06:55:50.000Z,29.4
2018-08-21T06:57:05.000Z,29.4
2018-08-21T06:58:05.000Z,29.4
2018-08-21T07:00:05.000Z,29.4
2018-08-21T07:01:05.000Z,29.5
2018-08-21T07:03:05.000Z,29.5
2018-08-21T07:05:05.000Z,29.5
2018-08-21T07:06:05.000Z,29.5
2018-08-21T07:08:05.000Z,29.6
2018-08-21T07:10:05.000Z,29.6
2018-08-21T07:12:05.000Z,29.6
2018-08-21T07:14:05.000Z,29.7
2018-08-21T07:16:05.000Z,29.6
2018-08-21T07:18:05.000Z,29.7
2018-08-21T07:20:05.000Z,29.6
2018-08-21T07:21:05.000Z,29.7
2018-08-21T07:22:05.000Z,29.8
2018-08-21T07:24:05.000Z,29.9
2018-08-21T07:26:05.000Z,29.9
2018-08-21T07:27:05.000Z,29.9
2018-08-21T07:29:05.000Z,30
2018-08-21T07:30:05.000Z,30.1
2018-08-21T07:31:05.000Z,30.2
2018-08-21T07:33:05.000Z,30.3
2018-08-21T07:35:05.000Z,30.4
2018-08-21T07:36:50.000Z,30.4
2018-08-21T07:38:05.000Z,30.4
2018-08-21T07:39:05.000Z,30.5
2018-08-21T07:41:05.000Z,30.5
2018-08-21T07:42:05.000Z,30.5
2018-08-21T07:44:05.000Z,30.6
2018-08-21T07:45:05.000Z,30.6
2018-08-21T07:46:50.000Z,30.7
2018-08-21T07:48:05.000Z,30.7
2018-08-21T07:49:04.000Z,30.7
2018-08-21T07:51:04.000Z,30.9
2018-08-21T07:52:04.000Z,30.9
2018-08-21T07:54:04.000Z,31
2018-08-21T07:55:04.000Z,31
2018-08-21T07:56:49.000Z,31.1
2018-08-21T07:58:04.000Z,31.1
2018-08-21T08:00:04.000Z,31.2
2018-08-21T08:01:49.000Z,31.3
2018-08-21T08:03:04.000Z,31.3
2018-08-21T08:04:04.000Z,31.4
2018-08-21T08:06:04.000Z,31.5
2018-08-21T08:07:49.000Z,31.6
2018-08-21T08:09:04.000Z,31.6
2018-08-21T08:10:04.000Z,31.7
2018-08-21T08:12:04.000Z,31.9
2018-08-21T08:13:04.000Z,32
2018-08-21T08:15:04.000Z,32.2
2018-08-21T08:17:04.000Z,32.3
2018-08-21T08:19:04.000Z,32.4
2018-08-21T08:20:04.000Z,32.4
2018-08-21T08:22:04.000Z,32.6
2018-08-21T08:24:04.000Z,32.6
2018-08-21T08:25:04.000Z,32.7
2018-08-21T08:26:04.000Z,32.7
2018-08-21T08:28:04.000Z,32.8
2018-08-21T08:30:04.000Z,32.8
2018-08-21T08:32:04.000Z,32.6
2018-08-21T08:34:04.000Z,32.3
2018-08-21T08:35:04.000Z,32.2
2018-08-21T08:37:04.000Z,32.1
2018-08-21T08:39:04.000Z,32
2018-08-21T08:41:04.000Z,31.8
2018-08-21T08:42:04.000Z,31.8
2018-08-21T08:43:04.000Z,31.8
2018-08-21T08:44:49.000Z,31.9
2018-08-21T08:46:04.000Z,31.9
2018-08-21T08:48:04.000Z,31.9
2018-08-21T08:49:04.000Z,31.9
2018-08-21T08:50:04.000Z,31.9
2018-08-21T08:51:49.000Z,32
2018-08-21T08:53:04.000Z,32
2018-08-21T08:55:04.000Z,32
2018-08-21T08:57:04.000Z,31.9
2018-08-21T08:59:04.000Z,31.9
2018-08-21T09:00:04.000Z,31.8
2018-08-21T09:02:04.000Z,31.8
2018-08-21T09:04:04.000Z,31.8
2018-08-21T09:06:04.000Z,31.8
2018-08-21T09:08:04.000Z,31.7
2018-08-21T09:10:04.000Z,31.6
2018-08-21T09:11:04.000Z,31.7
2018-08-21T09:12:49.000Z,31.8
2018-08-21T09:14:04.000Z,31.8
2018-08-21T09:15:04.000Z,31.8
2018-08-21T09:17:04.000Z,31.8
2018-08-21T09:18:04.000Z,31.9
2018-08-21T09:20:04.000Z,32
2018-08-21T09:22:04.000Z,31.9
2018-08-21T09:24:04.000Z,31.9
2018-08-21T09:25:04.000Z,32
2018-08-21T09:27:04.000Z,32
2018-08-21T09:29:04.000Z,32.1
2018-08-21T09:31:04.000Z,32
2018-08-21T09:32:04.000Z,32
2018-08-21T09:33:04.000Z,32
2018-08-21T09:35:04.000Z,31.9
2018-08-21T09:36:04.000Z,32
2018-08-21T09:37:49.000Z,32
2018-08-21T09:39:04.000Z,32
2018-08-21T09:41:04.000Z,32.1
2018-08-21T09:42:04.000Z,32.1
2018-08-21T09:43:04.000Z,32.2
2018-08-21T09:45:04.000Z,32.2
2018-08-21T09:47:04.000Z,32.2
2018-08-21T09:48:04.000Z,32.2
2018-08-21T09:50:04.000Z,32.3
2018-08-21T09:52:04.000Z,32.2
2018-08-21T09:53:04.000Z,32.2
2018-08-21T09:55:04.000Z,32.3
2018-08-21T09:56:04.000Z,32.3
2018-08-21T09:57:49.000Z,32.4
2018-08-21T09:59:04.000Z,32.4
2018-08-21T10:00:04.000Z,32.4
2018-08-21T10:02:04.000Z,32.4
2018-08-21T10:03:04.000Z,32.5
2018-08-21T10:05:04.000Z,32.5
2018-08-21T10:07:04.000Z,32.5
2018-08-21T10:09:04.000Z,32.5
2018-08-21T10:11:04.000Z,32.5
2018-08-21T10:13:04.000Z,32.5
2018-08-21T10:15:04.000Z,32.5
2018-08-21T10:17:04.000Z,32.4
2018-08-21T10:18:04.000Z,32.4
2018-08-21T10:20:04.000Z,32.5
2018-08-21T10:22:04.000Z,32.5
2018-08-21T10:23:04.000Z,32.5
2018-08-21T10:25:04.000Z,32.5
2018-08-21T10:27:04.000Z,32.6
2018-08-21T10:29:04.000Z,32.6
2018-08-21T10:31:04.000Z,32.6
2018-08-21T10:32:04.000Z,32.6
2018-08-21T10:33:49.000Z,32.7
2018-08-21T10:35:04.000Z,32.7
2018-08-21T10:36:04.000Z,32.7
2018-08-21T10:38:04.000Z,32.8
2018-08-21T10:39:04.000Z,32.8
2018-08-21T10:41:04.000Z,32.8
2018-08-21T10:43:04.000Z,32.8
2018-08-21T10:45:04.000Z,32.8
2018-08-21T10:47:04.000Z,32.8
2018-08-21T10:49:04.000Z,32.7
2018-08-21T10:50:49.000Z,32.7
2018-08-21T10:52:04.000Z,32.7
2018-08-21T10:53:04.000Z,32.7
2018-08-21T10:54:04.000Z,32.8
2018-08-21T10:55:49.000Z,32.9
2018-08-21T10:57:04.000Z,32.9
2018-08-21T10:59:04.000Z,33
2018-08-21T11:01:05.000Z,33
2018-08-21T11:03:05.000Z,33
2018-08-21T11:04:05.000Z,33.1
2018-08-21T11:06:05.000Z,33.1
2018-08-21T11:07:49.000Z,33
2018-08-21T11:09:05.000Z,33
2018-08-21T11:10:05.000Z,33
2018-08-21T11:12:05.000Z,33.1
2018-08-21T11:14:05.000Z,33.1
2018-08-21T11:15:05.000Z,33.1
2018-08-21T11:16:05.000Z,33.1
2018-08-21T11:18:05.000Z,33.2
2018-08-21T11:20:05.000Z,33.1
2018-08-21T11:21:49.000Z,33.1
2018-08-21T11:23:05.000Z,33
2018-08-21T11:25:05.000Z,33
2018-08-21T11:26:49.000Z,33.1
2018-08-21T11:28:05.000Z,33
2018-08-21T11:29:49.000Z,33.1
2018-08-21T11:31:05.000Z,33
2018-08-21T11:32:05.000Z,33.1
2018-08-21T11:34:05.000Z,33.1
2018-08-21T11:36:05.000Z,33.2
2018-08-21T11:38:05.000Z,33.1
2018-08-21T11:40:05.000Z,33
2018-08-21T11:41:05.000Z,33.1
2018-08-21T11:43:05.000Z,33.1
2018-08-21T11:44:05.000Z,33.1
2018-08-21T11:46:05.000Z,33.2
2018-08-21T11:48:05.000Z,33.2
2018-08-21T11:50:05.000Z,33.2
2018-08-21T11:51:05.000Z,33.1
2018-08-21T11:53:05.000Z,33.1
2018-08-21T11:55:05.000Z,33.1
2018-08-21T11:57:05.000Z,33
2018-08-21T12:01:05.000Z,33
2018-08-21T12:02:05.000Z,33
2018-08-21T12:04:05.000Z,33.1
2018-08-21T12:06:05.000Z,33.1
2018-08-21T12:07:05.000Z,33.1
2018-08-21T12:08:05.000Z,33.2
2018-08-21T12:10:05.000Z,33.2
2018-08-21T12:12:05.000Z,33.2
2018-08-21T12:13:05.000Z,33.2
2018-08-21T12:15:05.000Z,33.2
2018-08-21T12:16:49.000Z,33.1
2018-08-21T12:18:05.000Z,33.1
2018-08-21T12:20:05.000Z,33
2018-08-21T12:21:49.000Z,33
2018-08-21T12:23:05.000Z,33
2018-08-21T12:25:05.000Z,32.9
2018-08-21T12:26:05.000Z,32.9
2018-08-21T12:28:05.000Z,32.9
2018-08-21T12:29:05.000Z,33
2018-08-21T12:31:05.000Z,33
2018-08-21T12:33:05.000Z,33
2018-08-21T12:35:05.000Z,33.1
2018-08-21T12:36:05.000Z,33.1
2018-08-21T12:37:05.000Z,33.1
2018-08-21T12:39:05.000Z,33.2
2018-08-21T12:40:05.000Z,33.2
2018-08-21T12:42:05.000Z,33.2
2018-08-21T12:43:05.000Z,33.2
2018-08-21T12:45:05.000Z,33.2
2018-08-21T12:47:05.000Z,33.2
2018-08-21T12:48:05.000Z,33.1
2018-08-21T12:49:05.000Z,33.2
2018-08-21T12:51:05.000Z,33.2
2018-08-21T12:52:05.000Z,33.2
2018-08-21T12:54:05.000Z,33.2
2018-08-21T12:56:05.000Z,33.2
2018-08-21T12:58:05.000Z,33.2
2018-08-21T12:59:05.000Z,33.2
2018-08-21T13:01:05.000Z,33.2
2018-08-21T13:02:05.000Z,33.2
2018-08-21T13:04:05.000Z,33.3
2018-08-21T13:05:49.000Z,33.3
2018-08-21T13:07:05.000Z,33.2
2018-08-21T13:09:04.000Z,33.2
2018-08-21T13:10:04.000Z,33.2
2018-08-21T13:12:04.000Z,33.3
2018-08-21T13:14:04.000Z,33.2
2018-08-21T13:15:04.000Z,33.2
2018-08-21T13:16:04.000Z,33.2
2018-08-21T13:18:04.000Z,33.3
2018-08-21T13:19:04.000Z,33.3
2018-08-21T13:20:04.000Z,33.3
2018-08-21T13:22:04.000Z,33.4
2018-08-21T13:23:04.000Z,33.4
2018-08-21T13:25:04.000Z,33.4
2018-08-21T13:26:04.000Z,33.3
2018-08-21T13:28:04.000Z,33.3
2018-08-21T13:30:04.000Z,33.3
2018-08-21T13:32:04.000Z,33.2
2018-08-21T13:33:04.000Z,33.2
2018-08-21T13:34:49.000Z,33.3
2018-08-21T13:35:49.000Z,33.2
2018-08-21T13:37:04.000Z,33.2
2018-08-21T13:39:04.000Z,33.1
2018-08-21T13:40:04.000Z,33.1
2018-08-21T13:42:04.000Z,33.2
2018-08-21T13:43:04.000Z,33.2
2018-08-21T13:44:04.000Z,33.2
2018-08-21T13:46:04.000Z,33.2
2018-08-21T13:48:04.000Z,33.1
2018-08-21T13:49:04.000Z,33.1
2018-08-21T13:51:04.000Z,33.2
2018-08-21T13:53:04.000Z,33.2
2018-08-21T13:55:04.000Z,33.1
2018-08-21T13:56:04.000Z,33.1
2018-08-21T13:57:04.000Z,33.2
2018-08-21T13:59:04.000Z,33.2
2018-08-21T14:01:04.000Z,33.2
2018-08-21T14:03:04.000Z,33.1
2018-08-21T14:04:04.000Z,33.1
2018-08-21T14:06:04.000Z,33.1
2018-08-21T14:07:04.000Z,33.1
2018-08-21T14:09:04.000Z,33.1
2018-08-21T14:10:49.000Z,33.2
2018-08-21T14:12:05.000Z,33.1
2018-08-21T14:14:05.000Z,33.1
2018-08-21T14:15:05.000Z,33.1
2018-08-21T14:17:05.000Z,33.1
2018-08-21T14:18:05.000Z,33.1
2018-08-21T14:20:05.000Z,33.1
2018-08-21T14:21:05.000Z,33.2
2018-08-21T14:22:05.000Z,33.2
2018-08-21T14:24:05.000Z,33.3
2018-08-21T14:25:05.000Z,33.3
2018-08-21T14:26:05.000Z,33.3
2018-08-21T14:28:05.000Z,33.2
2018-08-21T14:29:05.000Z,33.2
2018-08-21T14:31:05.000Z,33.2
2018-08-21T14:33:05.000Z,33.1
2018-08-21T14:35:05.000Z,33
2018-08-21T14:36:05.000Z,33
2018-08-21T14:37:05.000Z,33.1
2018-08-21T14:39:05.000Z,33.1
2018-08-21T14:40:05.000Z,33.1
2018-08-21T14:42:05.000Z,33.1
2018-08-21T14:43:05.000Z,33.1
2018-08-21T14:45:05.000Z,33.1
2018-08-21T14:46:05.000Z,33.1
2018-08-21T14:48:05.000Z,33.1
2018-08-21T14:49:05.000Z,33.1
2018-08-21T14:50:49.000Z,33.1
2018-08-21T14:52:05.000Z,33.1
2018-08-21T14:54:05.000Z,33
2018-08-21T14:55:05.000Z,33
2018-08-21T14:57:05.000Z,33
2018-08-21T14:59:05.000Z,32.9
2018-08-21T15:01:05.000Z,32.9
2018-08-21T15:03:05.000Z,32.8
2018-08-21T15:05:05.000Z,32.8
2018-08-21T15:06:49.000Z,32.9
2018-08-21T15:08:05.000Z,32.8
2018-08-21T15:10:05.000Z,32.8
2018-08-21T15:11:05.000Z,32.9
2018-08-21T15:13:05.000Z,32.9
2018-08-21T15:14:05.000Z,32.9
2018-08-21T15:16:04.000Z,32.9
2018-08-21T15:18:04.000Z,32.9
2018-08-21T15:19:04.000Z,32.9
2018-08-21T15:20:04.000Z,33
2018-08-21T15:22:04.000Z,33
2018-08-21T15:24:04.000Z,32.9
2018-08-21T15:25:04.000Z,32.9
2018-08-21T15:27:04.000Z,32.9
2018-08-21T15:29:04.000Z,32.9
2018-08-21T15:30:04.000Z,32.9
2018-08-21T15:31:04.000Z,32.9
2018-08-21T15:33:04.000Z,32.9
2018-08-21T15:35:04.000Z,32.8
2018-08-21T15:36:04.000Z,32.9
2018-08-21T15:38:04.000Z,32.9
2018-08-21T15:40:04.000Z,32.9
2018-08-21T15:42:04.000Z,32.9
2018-08-21T15:44:04.000Z,32.9
2018-08-21T15:45:49.000Z,32.9
2018-08-21T15:47:04.000Z,32.8
2018-08-21T15:48:04.000Z,32.9
2018-08-21T15:50:04.000Z,32.9
